<?xml version="1.0" encoding="UTF-8" standalone="no" ?>
<gpx xmlns="http://www.topografix.com/GPX/1/1" xmlns:xsi="http://www.w3.org/2001/XMLSchema-instance" xsi:schemaLocation="http://www.topografix.com/GPX/1/1 http://www.topografix.com/GPX/1/1/gpx.xsd" version="1.1" creator="VisuGPX - https://www.visugpx.com">
  <metadata>
    <name>boucles beaumont</name>
    <desc><![CDATA[boucles beaumont du périgord]]></desc>
  </metadata>
  <trk>
    <name><![CDATA[BBmt54]]></name>
    <trkseg>
      <trkpt lat="44.80978" lon="0.825">
        <ele>139</ele>
        <time>2009-01-15T10:21:09Z</time>
      </trkpt>
      <trkpt lat="44.8096" lon="0.82488">
        <ele>145</ele>
        <time>2009-01-15T10:21:19Z</time>
      </trkpt>
      <trkpt lat="44.80943" lon="0.82473">
        <ele>146</ele>
        <time>2009-01-15T10:21:24Z</time>
      </trkpt>
      <trkpt lat="44.80925" lon="0.8246">
        <ele>147</ele>
        <time>2009-01-15T10:21:28Z</time>
      </trkpt>
      <trkpt lat="44.80905" lon="0.82445">
        <ele>151</ele>
        <time>2009-01-15T10:21:35Z</time>
      </trkpt>
      <trkpt lat="44.80888" lon="0.82433">
        <ele>153</ele>
        <time>2009-01-15T10:21:49Z</time>
      </trkpt>
      <trkpt lat="44.8087" lon="0.82418">
        <ele>154</ele>
        <time>2009-01-15T10:21:53Z</time>
      </trkpt>
      <trkpt lat="44.80855" lon="0.82403">
        <ele>157</ele>
        <time>2009-01-15T10:21:57Z</time>
      </trkpt>
      <trkpt lat="44.80838" lon="0.82395">
        <ele>157</ele>
        <time>2009-01-15T10:22:09Z</time>
      </trkpt>
      <trkpt lat="44.80823" lon="0.82418">
        <ele>157</ele>
        <time>2009-01-15T10:22:17Z</time>
      </trkpt>
      <trkpt lat="44.80813" lon="0.8244">
        <ele>155</ele>
        <time>2009-01-15T10:22:31Z</time>
      </trkpt>
      <trkpt lat="44.808" lon="0.82463">
        <ele>156</ele>
        <time>2009-01-15T10:22:36Z</time>
      </trkpt>
      <trkpt lat="44.8079" lon="0.82485">
        <ele>158</ele>
        <time>2009-01-15T10:22:40Z</time>
      </trkpt>
      <trkpt lat="44.8078" lon="0.82508">
        <ele>158</ele>
        <time>2009-01-15T10:22:44Z</time>
      </trkpt>
      <trkpt lat="44.80763" lon="0.82518">
        <ele>151</ele>
        <time>2009-01-15T10:23:37Z</time>
      </trkpt>
      <trkpt lat="44.80745" lon="0.82505">
        <ele>154</ele>
        <time>2009-01-15T10:24:31Z</time>
      </trkpt>
      <trkpt lat="44.8073" lon="0.8249">
        <ele>153</ele>
        <time>2009-01-15T10:24:47Z</time>
      </trkpt>
      <trkpt lat="44.80713" lon="0.82475">
        <ele>150</ele>
        <time>2009-01-15T10:25:06Z</time>
      </trkpt>
      <trkpt lat="44.80698" lon="0.8246">
        <ele>150</ele>
        <time>2009-01-15T10:25:25Z</time>
      </trkpt>
      <trkpt lat="44.80685" lon="0.8244">
        <ele>151</ele>
        <time>2009-01-15T10:25:41Z</time>
      </trkpt>
      <trkpt lat="44.80665" lon="0.82438">
        <ele>152</ele>
        <time>2009-01-15T10:25:56Z</time>
      </trkpt>
      <trkpt lat="44.8065" lon="0.82453">
        <ele>154</ele>
        <time>2009-01-15T10:26:10Z</time>
      </trkpt>
      <trkpt lat="44.80633" lon="0.82478">
        <ele>160</ele>
        <time>2009-01-15T10:30:53Z</time>
      </trkpt>
      <trkpt lat="44.80613" lon="0.82483">
        <ele>162</ele>
        <time>2009-01-15T10:31:41Z</time>
      </trkpt>
      <trkpt lat="44.80595" lon="0.82495">
        <ele>162</ele>
        <time>2009-01-15T10:31:48Z</time>
      </trkpt>
      <trkpt lat="44.80575" lon="0.82505">
        <ele>165</ele>
        <time>2009-01-15T10:31:53Z</time>
      </trkpt>
      <trkpt lat="44.80555" lon="0.82513">
        <ele>165</ele>
        <time>2009-01-15T10:31:57Z</time>
      </trkpt>
      <trkpt lat="44.80538" lon="0.8252">
        <ele>166</ele>
        <time>2009-01-15T10:32:01Z</time>
      </trkpt>
      <trkpt lat="44.80518" lon="0.82523">
        <ele>167</ele>
        <time>2009-01-15T10:32:05Z</time>
      </trkpt>
      <trkpt lat="44.80498" lon="0.82535">
        <ele>170</ele>
        <time>2009-01-15T10:32:10Z</time>
      </trkpt>
      <trkpt lat="44.80483" lon="0.8255">
        <ele>172</ele>
        <time>2009-01-15T10:32:14Z</time>
      </trkpt>
      <trkpt lat="44.80465" lon="0.82558">
        <ele>174</ele>
        <time>2009-01-15T10:32:18Z</time>
      </trkpt>
      <trkpt lat="44.80443" lon="0.8255">
        <ele>177</ele>
        <time>2009-01-15T10:32:22Z</time>
      </trkpt>
      <trkpt lat="44.80423" lon="0.82553">
        <ele>179</ele>
        <time>2009-01-15T10:32:25Z</time>
      </trkpt>
      <trkpt lat="44.80405" lon="0.8256">
        <ele>182</ele>
        <time>2009-01-15T10:32:28Z</time>
      </trkpt>
      <trkpt lat="44.80385" lon="0.82565">
        <ele>184</ele>
        <time>2009-01-15T10:32:31Z</time>
      </trkpt>
      <trkpt lat="44.80363" lon="0.82565">
        <ele>189</ele>
        <time>2009-01-15T10:32:35Z</time>
      </trkpt>
      <trkpt lat="44.8034" lon="0.82568">
        <ele>192</ele>
        <time>2009-01-15T10:32:40Z</time>
      </trkpt>
      <trkpt lat="44.8032" lon="0.8258">
        <ele>194</ele>
        <time>2009-01-15T10:32:57Z</time>
      </trkpt>
      <trkpt lat="44.80308" lon="0.8261">
        <ele>194</ele>
        <time>2009-01-15T10:33:00Z</time>
      </trkpt>
      <trkpt lat="44.80298" lon="0.82635">
        <ele>193</ele>
        <time>2009-01-15T10:33:02Z</time>
      </trkpt>
      <trkpt lat="44.8029" lon="0.82665">
        <ele>194</ele>
        <time>2009-01-15T10:33:04Z</time>
      </trkpt>
      <trkpt lat="44.80283" lon="0.82695">
        <ele>196</ele>
        <time>2009-01-15T10:33:06Z</time>
      </trkpt>
      <trkpt lat="44.80278" lon="0.82725">
        <ele>196</ele>
        <time>2009-01-15T10:33:08Z</time>
      </trkpt>
      <trkpt lat="44.80273" lon="0.82765">
        <ele>198</ele>
        <time>2009-01-15T10:33:11Z</time>
      </trkpt>
      <trkpt lat="44.80273" lon="0.82793">
        <ele>202</ele>
        <time>2009-01-15T10:33:35Z</time>
      </trkpt>
      <trkpt lat="44.80268" lon="0.82825">
        <ele>202</ele>
        <time>2009-01-15T10:33:40Z</time>
      </trkpt>
      <trkpt lat="44.80265" lon="0.82855">
        <ele>203</ele>
        <time>2009-01-15T10:33:43Z</time>
      </trkpt>
      <trkpt lat="44.80268" lon="0.8289">
        <ele>203</ele>
        <time>2009-01-15T10:33:46Z</time>
      </trkpt>
      <trkpt lat="44.8027" lon="0.82918">
        <ele>203</ele>
        <time>2009-01-15T10:33:48Z</time>
      </trkpt>
      <trkpt lat="44.80278" lon="0.82953">
        <ele>204</ele>
        <time>2009-01-15T10:33:51Z</time>
      </trkpt>
      <trkpt lat="44.80285" lon="0.82983">
        <ele>204</ele>
        <time>2009-01-15T10:33:54Z</time>
      </trkpt>
      <trkpt lat="44.80275" lon="0.83005">
        <ele>205</ele>
        <time>2009-01-15T10:34:07Z</time>
      </trkpt>
      <trkpt lat="44.8025" lon="0.83005">
        <ele>203</ele>
        <time>2009-01-15T10:34:11Z</time>
      </trkpt>
      <trkpt lat="44.80225" lon="0.83013">
        <ele>199</ele>
        <time>2009-01-15T10:34:14Z</time>
      </trkpt>
      <trkpt lat="44.80203" lon="0.8303">
        <ele>196</ele>
        <time>2009-01-15T10:34:17Z</time>
      </trkpt>
      <trkpt lat="44.8018" lon="0.8305">
        <ele>192</ele>
        <time>2009-01-15T10:34:20Z</time>
      </trkpt>
      <trkpt lat="44.80163" lon="0.83063">
        <ele>190</ele>
        <time>2009-01-15T10:34:22Z</time>
      </trkpt>
      <trkpt lat="44.80143" lon="0.83073">
        <ele>186</ele>
        <time>2009-01-15T10:34:24Z</time>
      </trkpt>
      <trkpt lat="44.80118" lon="0.83078">
        <ele>183</ele>
        <time>2009-01-15T10:34:26Z</time>
      </trkpt>
      <trkpt lat="44.80095" lon="0.83083">
        <ele>181</ele>
        <time>2009-01-15T10:34:43Z</time>
      </trkpt>
      <trkpt lat="44.80078" lon="0.8309">
        <ele>179</ele>
        <time>2009-01-15T10:34:46Z</time>
      </trkpt>
      <trkpt lat="44.80055" lon="0.831">
        <ele>178</ele>
        <time>2009-01-15T10:34:49Z</time>
      </trkpt>
      <trkpt lat="44.80038" lon="0.83108">
        <ele>177</ele>
        <time>2009-01-15T10:34:51Z</time>
      </trkpt>
      <trkpt lat="44.80015" lon="0.83113">
        <ele>175</ele>
        <time>2009-01-15T10:34:53Z</time>
      </trkpt>
      <trkpt lat="44.7999" lon="0.83115">
        <ele>176</ele>
        <time>2009-01-15T10:35:04Z</time>
      </trkpt>
      <trkpt lat="44.7997" lon="0.83123">
        <ele>175</ele>
        <time>2009-01-15T10:35:07Z</time>
      </trkpt>
      <trkpt lat="44.79948" lon="0.83133">
        <ele>172</ele>
        <time>2009-01-15T10:35:10Z</time>
      </trkpt>
      <trkpt lat="44.79928" lon="0.83153">
        <ele>172</ele>
        <time>2009-01-15T10:35:13Z</time>
      </trkpt>
      <trkpt lat="44.7991" lon="0.8318">
        <ele>170</ele>
        <time>2009-01-15T10:35:16Z</time>
      </trkpt>
      <trkpt lat="44.79895" lon="0.83205">
        <ele>169</ele>
        <time>2009-01-15T10:35:19Z</time>
      </trkpt>
      <trkpt lat="44.79873" lon="0.8322">
        <ele>167</ele>
        <time>2009-01-15T10:35:22Z</time>
      </trkpt>
      <trkpt lat="44.7985" lon="0.83235">
        <ele>165</ele>
        <time>2009-01-15T10:35:25Z</time>
      </trkpt>
      <trkpt lat="44.79828" lon="0.83248">
        <ele>164</ele>
        <time>2009-01-15T10:35:27Z</time>
      </trkpt>
      <trkpt lat="44.79805" lon="0.8326">
        <ele>163</ele>
        <time>2009-01-15T10:35:31Z</time>
      </trkpt>
      <trkpt lat="44.7978" lon="0.83268">
        <ele>156</ele>
        <time>2009-01-15T10:35:34Z</time>
      </trkpt>
      <trkpt lat="44.7976" lon="0.83273">
        <ele>153</ele>
        <time>2009-01-15T10:35:36Z</time>
      </trkpt>
      <trkpt lat="44.79735" lon="0.83275">
        <ele>151</ele>
        <time>2009-01-15T10:35:39Z</time>
      </trkpt>
      <trkpt lat="44.79718" lon="0.83285">
        <ele>154</ele>
        <time>2009-01-15T10:35:48Z</time>
      </trkpt>
      <trkpt lat="44.79698" lon="0.83285">
        <ele>153</ele>
        <time>2009-01-15T10:35:59Z</time>
      </trkpt>
      <trkpt lat="44.79675" lon="0.83288">
        <ele>150</ele>
        <time>2009-01-15T10:36:07Z</time>
      </trkpt>
      <trkpt lat="44.79658" lon="0.83278">
        <ele>147</ele>
        <time>2009-01-15T10:36:13Z</time>
      </trkpt>
      <trkpt lat="44.7964" lon="0.83265">
        <ele>148</ele>
        <time>2009-01-15T10:36:20Z</time>
      </trkpt>
      <trkpt lat="44.79623" lon="0.83255">
        <ele>153</ele>
        <time>2009-01-15T10:36:28Z</time>
      </trkpt>
      <trkpt lat="44.79605" lon="0.83245">
        <ele>153</ele>
        <time>2009-01-15T10:36:34Z</time>
      </trkpt>
      <trkpt lat="44.79588" lon="0.83238">
        <ele>153</ele>
        <time>2009-01-15T10:36:40Z</time>
      </trkpt>
      <trkpt lat="44.7957" lon="0.8323">
        <ele>152</ele>
        <time>2009-01-15T10:36:46Z</time>
      </trkpt>
      <trkpt lat="44.7955" lon="0.83228">
        <ele>150</ele>
        <time>2009-01-15T10:36:51Z</time>
      </trkpt>
      <trkpt lat="44.79528" lon="0.8323">
        <ele>146</ele>
        <time>2009-01-15T10:36:59Z</time>
      </trkpt>
      <trkpt lat="44.79508" lon="0.83233">
        <ele>144</ele>
        <time>2009-01-15T10:37:06Z</time>
      </trkpt>
      <trkpt lat="44.79485" lon="0.83235">
        <ele>140</ele>
        <time>2009-01-15T10:37:11Z</time>
      </trkpt>
      <trkpt lat="44.79465" lon="0.8324">
        <ele>134</ele>
        <time>2009-01-15T10:37:16Z</time>
      </trkpt>
      <trkpt lat="44.79445" lon="0.83243">
        <ele>137</ele>
        <time>2009-01-15T10:37:24Z</time>
      </trkpt>
      <trkpt lat="44.79425" lon="0.83243">
        <ele>136</ele>
        <time>2009-01-15T10:37:30Z</time>
      </trkpt>
      <trkpt lat="44.79405" lon="0.83248">
        <ele>135</ele>
        <time>2009-01-15T10:37:37Z</time>
      </trkpt>
      <trkpt lat="44.79383" lon="0.83253">
        <ele>132</ele>
        <time>2009-01-15T10:37:44Z</time>
      </trkpt>
      <trkpt lat="44.79365" lon="0.83268">
        <ele>127</ele>
        <time>2009-01-15T10:37:50Z</time>
      </trkpt>
      <trkpt lat="44.7935" lon="0.83285">
        <ele>132</ele>
        <time>2009-01-15T10:37:57Z</time>
      </trkpt>
      <trkpt lat="44.7933" lon="0.83293">
        <ele>133</ele>
        <time>2009-01-15T10:38:02Z</time>
      </trkpt>
      <trkpt lat="44.7931" lon="0.833">
        <ele>131</ele>
        <time>2009-01-15T10:38:09Z</time>
      </trkpt>
      <trkpt lat="44.79295" lon="0.83315">
        <ele>129</ele>
        <time>2009-01-15T10:38:14Z</time>
      </trkpt>
      <trkpt lat="44.79273" lon="0.83318">
        <ele>133</ele>
        <time>2009-01-15T10:38:20Z</time>
      </trkpt>
      <trkpt lat="44.79253" lon="0.83318">
        <ele>134</ele>
        <time>2009-01-15T10:38:25Z</time>
      </trkpt>
      <trkpt lat="44.79233" lon="0.83323">
        <ele>136</ele>
        <time>2009-01-15T10:38:29Z</time>
      </trkpt>
      <trkpt lat="44.79213" lon="0.8333">
        <ele>136</ele>
        <time>2009-01-15T10:38:34Z</time>
      </trkpt>
      <trkpt lat="44.79195" lon="0.8334">
        <ele>132</ele>
        <time>2009-01-15T10:38:38Z</time>
      </trkpt>
      <trkpt lat="44.7921" lon="0.8335">
        <ele>134</ele>
        <time>2009-01-15T10:39:29Z</time>
      </trkpt>
      <trkpt lat="44.7919" lon="0.83348">
        <ele>147</ele>
        <time>2009-01-15T10:42:15Z</time>
      </trkpt>
      <trkpt lat="44.79173" lon="0.83358">
        <ele>141</ele>
        <time>2009-01-15T10:42:20Z</time>
      </trkpt>
      <trkpt lat="44.79158" lon="0.83375">
        <ele>133</ele>
        <time>2009-01-15T10:42:25Z</time>
      </trkpt>
      <trkpt lat="44.79138" lon="0.83373">
        <ele>136</ele>
        <time>2009-01-15T10:42:32Z</time>
      </trkpt>
      <trkpt lat="44.79123" lon="0.83355">
        <ele>135</ele>
        <time>2009-01-15T10:42:37Z</time>
      </trkpt>
      <trkpt lat="44.791" lon="0.83353">
        <ele>141</ele>
        <time>2009-01-15T10:42:42Z</time>
      </trkpt>
      <trkpt lat="44.7908" lon="0.83353">
        <ele>146</ele>
        <time>2009-01-15T10:42:47Z</time>
      </trkpt>
      <trkpt lat="44.79063" lon="0.8336">
        <ele>147</ele>
        <time>2009-01-15T10:42:51Z</time>
      </trkpt>
      <trkpt lat="44.7904" lon="0.83355">
        <ele>150</ele>
        <time>2009-01-15T10:42:56Z</time>
      </trkpt>
      <trkpt lat="44.79018" lon="0.8335">
        <ele>155</ele>
        <time>2009-01-15T10:43:01Z</time>
      </trkpt>
      <trkpt lat="44.79" lon="0.83343">
        <ele>157</ele>
        <time>2009-01-15T10:43:06Z</time>
      </trkpt>
      <trkpt lat="44.78995" lon="0.83313">
        <ele>165</ele>
        <time>2009-01-15T10:43:53Z</time>
      </trkpt>
      <trkpt lat="44.78998" lon="0.83283">
        <ele>160</ele>
        <time>2009-01-15T10:43:58Z</time>
      </trkpt>
      <trkpt lat="44.79008" lon="0.8326">
        <ele>160</ele>
        <time>2009-01-15T10:44:03Z</time>
      </trkpt>
      <trkpt lat="44.7902" lon="0.83235">
        <ele>163</ele>
        <time>2009-01-15T10:44:10Z</time>
      </trkpt>
      <trkpt lat="44.79023" lon="0.83208">
        <ele>161</ele>
        <time>2009-01-15T10:44:16Z</time>
      </trkpt>
      <trkpt lat="44.79018" lon="0.83183">
        <ele>162</ele>
        <time>2009-01-15T10:44:21Z</time>
      </trkpt>
      <trkpt lat="44.79013" lon="0.83155">
        <ele>143</ele>
        <time>2009-01-15T10:44:50Z</time>
      </trkpt>
      <trkpt lat="44.79005" lon="0.8313">
        <ele>142</ele>
        <time>2009-01-15T10:44:53Z</time>
      </trkpt>
      <trkpt lat="44.79" lon="0.83105">
        <ele>139</ele>
        <time>2009-01-15T10:44:57Z</time>
      </trkpt>
      <trkpt lat="44.78998" lon="0.83078">
        <ele>142</ele>
        <time>2009-01-15T10:45:02Z</time>
      </trkpt>
      <trkpt lat="44.79013" lon="0.8306">
        <ele>150</ele>
        <time>2009-01-15T10:45:54Z</time>
      </trkpt>
      <trkpt lat="44.79028" lon="0.8304">
        <ele>153</ele>
        <time>2009-01-15T10:46:09Z</time>
      </trkpt>
      <trkpt lat="44.79033" lon="0.83015">
        <ele>151</ele>
        <time>2009-01-15T10:46:15Z</time>
      </trkpt>
      <trkpt lat="44.79035" lon="0.82988">
        <ele>150</ele>
        <time>2009-01-15T10:46:19Z</time>
      </trkpt>
      <trkpt lat="44.79038" lon="0.82955">
        <ele>150</ele>
        <time>2009-01-15T10:46:23Z</time>
      </trkpt>
      <trkpt lat="44.7904" lon="0.82925">
        <ele>151</ele>
        <time>2009-01-15T10:46:28Z</time>
      </trkpt>
      <trkpt lat="44.7904" lon="0.82915">
        <ele>145</ele>
        <time>2008-12-18T14:55:27Z</time>
      </trkpt>
      <trkpt lat="44.79045" lon="0.82888">
        <ele>152</ele>
        <time>2008-12-18T14:58:35Z</time>
      </trkpt>
      <trkpt lat="44.79045" lon="0.8286">
        <ele>149</ele>
        <time>2008-12-18T14:58:40Z</time>
      </trkpt>
      <trkpt lat="44.79038" lon="0.82835">
        <ele>150</ele>
        <time>2008-12-18T14:58:45Z</time>
      </trkpt>
      <trkpt lat="44.79025" lon="0.82813">
        <ele>153</ele>
        <time>2008-12-18T14:58:49Z</time>
      </trkpt>
      <trkpt lat="44.7901" lon="0.8279">
        <ele>152</ele>
        <time>2008-12-18T14:58:54Z</time>
      </trkpt>
      <trkpt lat="44.78993" lon="0.8277">
        <ele>152</ele>
        <time>2008-12-18T14:58:59Z</time>
      </trkpt>
      <trkpt lat="44.78975" lon="0.8276">
        <ele>150</ele>
        <time>2008-12-18T14:59:03Z</time>
      </trkpt>
      <trkpt lat="44.78955" lon="0.8275">
        <ele>150</ele>
        <time>2008-12-18T14:59:09Z</time>
      </trkpt>
      <trkpt lat="44.78938" lon="0.8274">
        <ele>150</ele>
        <time>2008-12-18T14:59:14Z</time>
      </trkpt>
      <trkpt lat="44.7892" lon="0.82728">
        <ele>152</ele>
        <time>2008-12-18T14:59:18Z</time>
      </trkpt>
      <trkpt lat="44.78903" lon="0.82713">
        <ele>155</ele>
        <time>2008-12-18T14:59:23Z</time>
      </trkpt>
      <trkpt lat="44.78885" lon="0.82705">
        <ele>156</ele>
        <time>2008-12-18T14:59:27Z</time>
      </trkpt>
      <trkpt lat="44.7887" lon="0.8269">
        <ele>155</ele>
        <time>2008-12-18T14:59:31Z</time>
      </trkpt>
      <trkpt lat="44.7886" lon="0.82668">
        <ele>162</ele>
        <time>2008-12-18T14:59:56Z</time>
      </trkpt>
      <trkpt lat="44.78845" lon="0.82653">
        <ele>156</ele>
        <time>2008-12-18T15:00:02Z</time>
      </trkpt>
      <trkpt lat="44.78828" lon="0.82643">
        <ele>153</ele>
        <time>2008-12-18T15:00:06Z</time>
      </trkpt>
      <trkpt lat="44.7881" lon="0.82635">
        <ele>150</ele>
        <time>2008-12-18T15:00:11Z</time>
      </trkpt>
      <trkpt lat="44.7879" lon="0.8263">
        <ele>147</ele>
        <time>2008-12-18T15:00:17Z</time>
      </trkpt>
      <trkpt lat="44.7877" lon="0.82623">
        <ele>146</ele>
        <time>2008-12-18T15:00:22Z</time>
      </trkpt>
      <trkpt lat="44.78753" lon="0.82605">
        <ele>151</ele>
        <time>2008-12-18T15:00:29Z</time>
      </trkpt>
      <trkpt lat="44.78748" lon="0.8258">
        <ele>155</ele>
        <time>2008-12-18T15:00:49Z</time>
      </trkpt>
      <trkpt lat="44.78743" lon="0.82555">
        <ele>153</ele>
        <time>2008-12-18T15:01:31Z</time>
      </trkpt>
      <trkpt lat="44.78738" lon="0.82508">
        <ele>158</ele>
        <time>2008-12-18T15:02:30Z</time>
      </trkpt>
      <trkpt lat="44.78723" lon="0.8249">
        <ele>151</ele>
        <time>2008-12-18T15:02:48Z</time>
      </trkpt>
      <trkpt lat="44.78708" lon="0.82475">
        <ele>158</ele>
        <time>2008-12-18T15:03:28Z</time>
      </trkpt>
      <trkpt lat="44.78695" lon="0.82455">
        <ele>158</ele>
        <time>2008-12-18T15:03:40Z</time>
      </trkpt>
      <trkpt lat="44.78683" lon="0.82435">
        <ele>156</ele>
        <time>2008-12-18T15:03:44Z</time>
      </trkpt>
      <trkpt lat="44.78665" lon="0.82415">
        <ele>152</ele>
        <time>2008-12-18T15:03:50Z</time>
      </trkpt>
      <trkpt lat="44.7865" lon="0.82398">
        <ele>152</ele>
        <time>2008-12-18T15:03:57Z</time>
      </trkpt>
      <trkpt lat="44.78633" lon="0.82385">
        <ele>162</ele>
        <time>2008-12-18T15:04:09Z</time>
      </trkpt>
      <trkpt lat="44.78618" lon="0.82368">
        <ele>154</ele>
        <time>2008-12-18T15:04:29Z</time>
      </trkpt>
      <trkpt lat="44.786" lon="0.8235">
        <ele>152</ele>
        <time>2008-12-18T15:04:33Z</time>
      </trkpt>
      <trkpt lat="44.78593" lon="0.82323">
        <ele>153</ele>
        <time>2008-12-18T15:04:37Z</time>
      </trkpt>
      <trkpt lat="44.78593" lon="0.82295">
        <ele>154</ele>
        <time>2008-12-18T15:04:41Z</time>
      </trkpt>
      <trkpt lat="44.78595" lon="0.82265">
        <ele>155</ele>
        <time>2008-12-18T15:04:47Z</time>
      </trkpt>
      <trkpt lat="44.78578" lon="0.82258">
        <ele>158</ele>
        <time>2008-12-18T15:05:07Z</time>
      </trkpt>
      <trkpt lat="44.7856" lon="0.82273">
        <ele>159</ele>
        <time>2008-12-18T15:05:13Z</time>
      </trkpt>
      <trkpt lat="44.78543" lon="0.82288">
        <ele>159</ele>
        <time>2008-12-18T15:05:18Z</time>
      </trkpt>
      <trkpt lat="44.78525" lon="0.823">
        <ele>159</ele>
        <time>2008-12-18T15:05:24Z</time>
      </trkpt>
      <trkpt lat="44.78508" lon="0.8231">
        <ele>158</ele>
        <time>2008-12-18T15:05:29Z</time>
      </trkpt>
      <trkpt lat="44.7849" lon="0.8232">
        <ele>158</ele>
        <time>2008-12-18T15:05:34Z</time>
      </trkpt>
      <trkpt lat="44.7847" lon="0.8233">
        <ele>158</ele>
        <time>2008-12-18T15:05:40Z</time>
      </trkpt>
      <trkpt lat="44.7845" lon="0.82333">
        <ele>158</ele>
        <time>2008-12-18T15:05:46Z</time>
      </trkpt>
      <trkpt lat="44.7843" lon="0.8233">
        <ele>158</ele>
        <time>2008-12-18T15:05:53Z</time>
      </trkpt>
      <trkpt lat="44.7841" lon="0.82325">
        <ele>159</ele>
        <time>2008-12-18T15:06:03Z</time>
      </trkpt>
      <trkpt lat="44.78393" lon="0.82315">
        <ele>159</ele>
        <time>2008-12-18T15:06:11Z</time>
      </trkpt>
      <trkpt lat="44.78373" lon="0.8231">
        <ele>158</ele>
        <time>2008-12-18T15:06:20Z</time>
      </trkpt>
      <trkpt lat="44.78355" lon="0.823">
        <ele>160</ele>
        <time>2008-12-18T15:06:26Z</time>
      </trkpt>
      <trkpt lat="44.78338" lon="0.82285">
        <ele>160</ele>
        <time>2008-12-18T15:06:36Z</time>
      </trkpt>
      <trkpt lat="44.7832" lon="0.8227">
        <ele>160</ele>
        <time>2008-12-18T15:06:48Z</time>
      </trkpt>
      <trkpt lat="44.78305" lon="0.82255">
        <ele>160</ele>
        <time>2008-12-18T15:06:52Z</time>
      </trkpt>
      <trkpt lat="44.78288" lon="0.82245">
        <ele>159</ele>
        <time>2008-12-18T15:06:59Z</time>
      </trkpt>
      <trkpt lat="44.7827" lon="0.82233">
        <ele>158</ele>
        <time>2008-12-18T15:07:04Z</time>
      </trkpt>
      <trkpt lat="44.78253" lon="0.8222">
        <ele>159</ele>
        <time>2008-12-18T15:07:09Z</time>
      </trkpt>
      <trkpt lat="44.78235" lon="0.8221">
        <ele>159</ele>
        <time>2008-12-18T15:07:57Z</time>
      </trkpt>
      <trkpt lat="44.7823" lon="0.8218">
        <ele>160</ele>
        <time>2008-12-18T15:08:08Z</time>
      </trkpt>
      <trkpt lat="44.7823" lon="0.8215">
        <ele>160</ele>
        <time>2008-12-18T15:08:11Z</time>
      </trkpt>
      <trkpt lat="44.78233" lon="0.82115">
        <ele>160</ele>
        <time>2008-12-18T15:08:14Z</time>
      </trkpt>
      <trkpt lat="44.7824" lon="0.8208">
        <ele>161</ele>
        <time>2008-12-18T15:08:17Z</time>
      </trkpt>
      <trkpt lat="44.78245" lon="0.82055">
        <ele>162</ele>
        <time>2008-12-18T15:08:19Z</time>
      </trkpt>
      <trkpt lat="44.78253" lon="0.8202">
        <ele>164</ele>
        <time>2008-12-18T15:08:22Z</time>
      </trkpt>
      <trkpt lat="44.78253" lon="0.81985">
        <ele>164</ele>
        <time>2008-12-18T15:08:25Z</time>
      </trkpt>
      <trkpt lat="44.7825" lon="0.81948">
        <ele>163</ele>
        <time>2008-12-18T15:08:28Z</time>
      </trkpt>
      <trkpt lat="44.78245" lon="0.8192">
        <ele>162</ele>
        <time>2008-12-18T15:08:30Z</time>
      </trkpt>
      <trkpt lat="44.7824" lon="0.81893">
        <ele>162</ele>
        <time>2008-12-18T15:08:32Z</time>
      </trkpt>
      <trkpt lat="44.78235" lon="0.81865">
        <ele>161</ele>
        <time>2008-12-18T15:08:34Z</time>
      </trkpt>
      <trkpt lat="44.7823" lon="0.81828">
        <ele>162</ele>
        <time>2008-12-18T15:08:37Z</time>
      </trkpt>
      <trkpt lat="44.7823" lon="0.818">
        <ele>163</ele>
        <time>2008-12-18T15:08:39Z</time>
      </trkpt>
      <trkpt lat="44.7823" lon="0.8177">
        <ele>164</ele>
        <time>2008-12-18T15:08:41Z</time>
      </trkpt>
      <trkpt lat="44.78228" lon="0.81735">
        <ele>165</ele>
        <time>2008-12-18T15:08:44Z</time>
      </trkpt>
      <trkpt lat="44.78213" lon="0.81715">
        <ele>168</ele>
        <time>2008-12-18T15:08:57Z</time>
      </trkpt>
      <trkpt lat="44.78195" lon="0.81723">
        <ele>169</ele>
        <time>2008-12-18T15:09:13Z</time>
      </trkpt>
      <trkpt lat="44.78173" lon="0.81725">
        <ele>167</ele>
        <time>2008-12-18T15:14:49Z</time>
      </trkpt>
      <trkpt lat="44.7815" lon="0.8173">
        <ele>167</ele>
        <time>2008-12-18T15:14:53Z</time>
      </trkpt>
      <trkpt lat="44.7813" lon="0.81735">
        <ele>167</ele>
        <time>2008-12-18T15:14:56Z</time>
      </trkpt>
      <trkpt lat="44.7811" lon="0.8174">
        <ele>167</ele>
        <time>2008-12-18T15:14:59Z</time>
      </trkpt>
      <trkpt lat="44.78088" lon="0.81748">
        <ele>167</ele>
        <time>2008-12-18T15:15:02Z</time>
      </trkpt>
      <trkpt lat="44.78065" lon="0.8175">
        <ele>167</ele>
        <time>2008-12-18T15:15:05Z</time>
      </trkpt>
      <trkpt lat="44.78043" lon="0.8175">
        <ele>166</ele>
        <time>2008-12-18T15:15:08Z</time>
      </trkpt>
      <trkpt lat="44.7802" lon="0.81748">
        <ele>166</ele>
        <time>2008-12-18T15:15:11Z</time>
      </trkpt>
      <trkpt lat="44.77995" lon="0.81743">
        <ele>165</ele>
        <time>2008-12-18T15:15:14Z</time>
      </trkpt>
      <trkpt lat="44.77973" lon="0.8174">
        <ele>165</ele>
        <time>2008-12-18T15:15:17Z</time>
      </trkpt>
      <trkpt lat="44.7795" lon="0.81738">
        <ele>164</ele>
        <time>2008-12-18T15:15:20Z</time>
      </trkpt>
      <trkpt lat="44.7793" lon="0.81733">
        <ele>164</ele>
        <time>2008-12-18T15:15:23Z</time>
      </trkpt>
      <trkpt lat="44.7791" lon="0.81725">
        <ele>164</ele>
        <time>2008-12-18T15:15:26Z</time>
      </trkpt>
      <trkpt lat="44.7789" lon="0.81713">
        <ele>163</ele>
        <time>2008-12-18T15:15:29Z</time>
      </trkpt>
      <trkpt lat="44.7787" lon="0.817">
        <ele>161</ele>
        <time>2008-12-18T15:15:32Z</time>
      </trkpt>
      <trkpt lat="44.77853" lon="0.8168">
        <ele>159</ele>
        <time>2008-12-18T15:15:35Z</time>
      </trkpt>
      <trkpt lat="44.77835" lon="0.81658">
        <ele>158</ele>
        <time>2008-12-18T15:15:38Z</time>
      </trkpt>
      <trkpt lat="44.77818" lon="0.81635">
        <ele>155</ele>
        <time>2008-12-18T15:15:41Z</time>
      </trkpt>
      <trkpt lat="44.77803" lon="0.81615">
        <ele>153</ele>
        <time>2008-12-18T15:15:44Z</time>
      </trkpt>
    </trkseg>
  </trk>
</gpx>